Terminal Aerodrome Forecast
Issued by NWS Pendleton, OR

Current Version | Previous Version | Text Only | Print | Product List | Glossary On
Versions: 1 2 3 4 5 6 7 8 9 10 11 12 13 14 15 16 17 18 19 20
486
FTUS46 KPDT 061137
TAFPDT
TAF
KPDT 061137Z 0612/0712 27006KT P6SM SCT080 BKN200
     FM061500 27009KT P6SM SCT025 BKN200
     FM062000 02012G20KT P6SM SCT050 BKN150
     FM070400 29007KT P6SM SCT080=

USA.gov is the U.S. government's official web portal to all federal, state and local government web resources and services.